KSWO/SWO METAR and TAF weather

Enter ICAO airport designator
Station Type Date Time Source
KSWO METAR 2019/04/24 21:53 UTC NOAA

KSWO 242153Z 00000KT 10SM OVC021 18/12 A2986 RMK AO2 SLP105 T01780117


Station Type Date Time Source
KSWO Decoded METAR 2019/04/24 21:53 UTC NOAA

STILLWATER REGIONAL AIRPORT, OK, United States (KSWO) 36-10N 97-05W 290M
Apr 24, 2019 - 05:53 PM EDT / 2019.04.24 2153 UTC
Wind: Calm:0
Visibility: 10 mile(s):0
Sky conditions: overcast
Temperature: 64.0 F (17.8 C)
Dew Point: 53.1 F (11.7 C)
Relative Humidity: 67%
Pressure (altimeter): 29.86 in. Hg (1011 hPa)
ob: KSWO 242153Z 00000KT 10SM OVC021 18/12 A2986 RMK AO2 SLP105 T01780117
cycle: 22

Station Type Date Time Source
KSWO TAF UTC NOAA

Error!

Example: see airport list